Time;durP1;ratioP1;P1;durP2;ratioP2;P2;SDS_P1;SDS_P2;PMS_P1;PMS_P2;Temp;Humidity;BMP_temperature;BMP_pressure;BME280_temperature;BME280_humidity;BME280_pressure;Samples;Min_cycle;Max_cycle;Signal;HPM_P1;HPM_P2
2023/06/06 00:01:45;;;;;;;;;;;12.60;99.90;;;;;;4920805;28;20536;-84
2023/06/06 00:04:12;;;;;;;13.57;5.10;;;12.50;99.90;;;;;;4921040;29;19942;-83
2023/06/06 00:06:42;;;;;;;11.30;5.28;;;12.50;99.90;;;;;;4915084;28;20481;-85
2023/06/06 00:09:10;;;;;;;6.47;4.18;;;12.50;99.90;;;;;;4922124;28;20059;-84
2023/06/06 00:11:39;;;;;;;7.25;4.70;;;12.50;99.90;;;;;;4915782;29;20150;-83
2023/06/06 00:14:07;;;;;;;6.93;4.63;;;12.50;99.90;;;;;;4932663;28;20125;-83
2023/06/06 00:16:34;;;;;;;4.82;3.85;;;12.50;99.90;;;;;;4917942;28;20075;-81
2023/06/06 00:19:03;;;;;;;8.75;3.88;;;12.40;99.90;;;;;;4914728;29;20063;-84
2023/06/06 00:21:32;;;;;;;11.80;4.70;;;12.40;99.90;;;;;;4927605;28;20099;-82
2023/06/06 00:24:00;;;;;;;5.57;2.97;;;12.40;99.90;;;;;;4921123;28;20147;-84
2023/06/06 00:26:27;;;;;;;7.40;3.63;;;12.40;99.90;;;;;;4915182;28;20347;-83
2023/06/06 00:28:54;;;;;;;6.72;4.20;;;12.40;99.90;;;;;;4935022;28;20040;-83
2023/06/06 00:31:21;;;;;;;7.30;4.22;;;12.40;99.90;;;;;;4914849;28;20078;-83
2023/06/06 00:33:49;;;;;;;5.82;3.45;;;12.40;99.90;;;;;;4931673;28;20051;-82
2023/06/06 00:36:16;;;;;;;5.55;3.78;;;12.40;99.90;;;;;;4932244;28;20528;-85
2023/06/06 00:38:43;;;;;;;5.55;3.85;;;12.30;99.90;;;;;;4916666;28;20509;-84
2023/06/06 00:41:11;;;;;;;8.57;3.85;;;12.30;99.90;;;;;;4934565;28;20048;-82
2023/06/06 00:43:38;;;;;;;7.10;3.45;;;12.30;99.90;;;;;;4938519;28;20157;-83
2023/06/06 00:46:06;;;;;;;7.88;4.50;;;12.30;99.90;;;;;;4936427;28;20103;-84
2023/06/06 00:48:33;;;;;;;6.85;4.15;;;12.20;99.90;;;;;;4917788;28;20059;-83
2023/06/06 00:51:00;;;;;;;8.68;4.43;;;12.20;99.90;;;;;;4918668;28;20052;-82
2023/06/06 00:53:27;;;;;;;4.70;3.10;;;12.20;99.90;;;;;;4919783;28;20052;-81
2023/06/06 00:55:54;;;;;;;6.30;4.43;;;12.20;99.90;;;;;;4935581;28;20062;-83
2023/06/06 00:58:22;;;;;;;13.02;3.67;;;12.20;99.90;;;;;;4924762;28;20064;-84
2023/06/06 01:00:49;;;;;;;6.20;3.92;;;12.20;99.90;;;;;;4926180;28;20066;-84
2023/06/06 01:03:16;;;;;;;4.35;3.78;;;12.20;99.90;;;;;;4936282;28;20422;-82
2023/06/06 01:05:43;;;;;;;5.40;3.60;;;12.20;99.90;;;;;;4920314;28;20099;-84
2023/06/06 01:08:12;;;;;;;10.90;4.57;;;12.20;99.90;;;;;;4914467;28;20490;-81
2023/06/06 01:10:40;;;;;;;6.70;3.22;;;12.10;99.90;;;;;;4915360;28;20051;-83
2023/06/06 01:13:40;;;;;;;5.90;3.40;;;12.10;99.90;;;;;;4919053;28;20048;-84
2023/06/06 01:16:13;;;;;;;7.28;4.35;;;12.10;99.90;;;;;;4917419;29;20102;-84
2023/06/06 01:18:42;;;;;;;8.70;5.95;;;12.10;99.90;;;;;;4930347;28;20075;-84
2023/06/06 01:21:09;;;;;;;7.05;4.20;;;12.10;99.90;;;;;;4919480;28;20079;-83
2023/06/06 01:23:37;;;;;;;5.65;3.08;;;12.00;99.90;;;;;;4911685;29;20056;-82
2023/06/06 01:26:07;;;;;;;6.68;3.35;;;12.00;99.90;;;;;;4922058;28;20055;-83
2023/06/06 01:28:33;;;;;;;7.15;4.25;;;12.00;99.90;;;;;;4933346;28;20389;-84
2023/06/06 01:31:01;;;;;;;6.60;3.63;;;12.00;99.90;;;;;;4917731;29;20571;-82
2023/06/06 01:33:43;;;;;;;6.55;3.70;;;12.00;99.90;;;;;;4918754;28;20056;-82
2023/06/06 01:36:39;;;;;;;8.52;4.50;;;12.00;99.90;;;;;;4936897;28;20056;-82
2023/06/06 01:39:11;;;;;;;8.60;4.70;;;12.00;99.90;;;;;;4908918;29;20058;-83
2023/06/06 01:41:39;;;;;;;12.23;4.55;;;11.90;99.90;;;;;;4920098;29;20078;-85
2023/06/06 01:44:10;;;;;;;9.88;3.85;;;11.90;99.90;;;;;;4934708;28;20059;-84
2023/06/06 01:46:39;;;;;;;5.45;3.63;;;11.90;99.90;;;;;;4917197;28;20142;-82
2023/06/06 01:49:08;;;;;;;6.88;4.68;;;11.90;99.90;;;;;;4935629;28;20057;-83
2023/06/06 01:51:36;;;;;;;4.25;3.63;;;11.90;99.90;;;;;;4915720;29;20055;-82
2023/06/06 01:54:03;;;;;;;8.75;3.45;;;11.90;99.90;;;;;;4922364;28;20051;-81
2023/06/06 01:56:33;;;;;;;6.40;3.88;;;11.90;99.90;;;;;;4918350;28;20150;-84
2023/06/06 01:59:01;;;;;;;3.38;3.05;;;11.90;99.90;;;;;;4920474;28;20528;-87
2023/06/06 02:01:29;;;;;;;6.43;4.40;;;11.90;99.90;;;;;;4931239;28;20729;-84
2023/06/06 02:03:56;;;;;;;6.63;4.22;;;11.90;99.90;;;;;;4919938;28;20412;-84
2023/06/06 02:06:23;;;;;;;5.57;3.95;;;11.90;99.90;;;;;;4933547;28;20155;-84
2023/06/06 02:08:51;;;;;;;13.35;4.80;;;11.80;99.90;;;;;;4920624;29;20074;-82
2023/06/06 02:11:18;;;;;;;7.38;4.72;;;11.90;99.90;;;;;;4913838;28;20048;-85
2023/06/06 02:13:44;;;;;;;6.18;4.05;;;11.90;99.90;;;;;;4914724;29;20055;-84
2023/06/06 02:16:13;;;;;;;5.95;4.15;;;11.90;99.90;;;;;;4933252;28;20074;-84
2023/06/06 02:18:44;;;;;;;10.90;4.65;;;11.90;99.90;;;;;;4934245;28;20170;-83
2023/06/06 02:21:15;;;;;;;5.28;4.78;;;11.80;99.90;;;;;;4931168;28;20162;-84
2023/06/06 02:23:42;;;;;;;6.43;4.50;;;11.80;99.90;;;;;;4933522;28;20108;-84
2023/06/06 02:26:12;;;;;;;4.70;3.60;;;11.80;99.90;;;;;;4939558;28;20048;-84
2023/06/06 02:28:41;;;;;;;6.25;4.78;;;11.90;99.90;;;;;;4933670;28;20055;-83
2023/06/06 02:31:14;;;;;;;14.27;4.32;;;11.90;99.90;;;;;;4933073;28;20421;-85
2023/06/06 02:33:41;;;;;;;8.23;3.65;;;11.80;99.90;;;;;;4921345;28;20052;-84
2023/06/06 02:36:08;;;;;;;8.45;4.28;;;11.80;99.90;;;;;;4921668;28;20063;-82
2023/06/06 02:38:35;;;;;;;4.53;4.07;;;11.90;99.90;;;;;;4912434;28;20047;-84
2023/06/06 02:41:02;;;;;;;6.95;4.68;;;11.90;99.90;;;;;;4933323;28;20056;-82
2023/06/06 02:43:30;;;;;;;5.40;4.38;;;11.80;99.90;;;;;;4918379;28;20769;-81
2023/06/06 02:45:57;;;;;;;9.57;4.30;;;11.90;99.90;;;;;;4930774;28;20056;-83
2023/06/06 02:48:24;;;;;;;10.38;4.75;;;11.90;99.90;;;;;;4916886;28;20087;-83
2023/06/06 02:50:51;;;;;;;6.35;3.63;;;11.90;99.90;;;;;;4930292;28;20131;-83
2023/06/06 02:53:18;;;;;;;3.95;3.38;;;11.90;99.90;;;;;;4927752;28;20649;-82
2023/06/06 02:55:45;;;;;;;7.47;3.63;;;11.90;99.90;;;;;;4932797;28;20374;-84
2023/06/06 02:58:29;;;;;;;7.68;4.78;;;11.90;99.90;;;;;;4918514;28;20131;-80
2023/06/06 03:00:57;;;;;;;11.20;5.13;;;11.90;99.90;;;;;;4935911;28;20116;-81
2023/06/06 03:03:25;;;;;;;7.75;4.50;;;11.90;99.90;;;;;;4932936;28;20066;-81
2023/06/06 03:05:54;;;;;;;10.70;5.97;;;11.90;99.90;;;;;;4933076;28;20186;-81
2023/06/06 03:08:21;;;;;;;8.40;4.57;;;12.00;99.90;;;;;;4916703;28;20052;-80
2023/06/06 03:10:50;;;;;;;6.97;4.15;;;12.00;99.90;;;;;;4929570;28;20689;-81
2023/06/06 03:13:17;;;;;;;6.22;3.88;;;12.00;99.90;;;;;;4915385;28;20083;-79
2023/06/06 03:15:45;;;;;;;9.60;5.07;;;12.00;99.90;;;;;;4928257;28;20107;-80
2023/06/06 03:18:20;;;;;;;6.88;4.57;;;12.00;99.90;;;;;;4936353;28;20047;-80
2023/06/06 03:20:56;;;;;;;6.32;4.28;;;12.00;99.90;;;;;;4932091;28;20674;-80
2023/06/06 03:23:25;;;;;;;6.70;3.95;;;12.00;99.90;;;;;;4921934;28;20052;-82
2023/06/06 03:25:53;;;;;;;7.60;5.57;;;12.10;99.90;;;;;;4933508;28;20059;-79
2023/06/06 03:28:23;;;;;;;9.00;4.18;;;12.10;99.90;;;;;;4930163;28;20056;-81
2023/06/06 03:30:52;;;;;;;12.63;5.35;;;12.10;99.90;;;;;;4932199;28;20905;-79
2023/06/06 03:33:20;;;;;;;8.07;4.03;;;12.10;99.90;;;;;;4933948;28;20476;-79
2023/06/06 03:35:49;;;;;;;6.80;5.05;;;12.10;99.90;;;;;;4911258;29;20136;-81
2023/06/06 03:38:16;;;;;;;10.00;4.68;;;12.10;99.90;;;;;;4914289;28;20054;-80
2023/06/06 03:40:43;;;;;;;5.72;4.20;;;12.20;99.90;;;;;;4927499;28;21061;-80
2023/06/06 03:43:10;;;;;;;6.03;3.72;;;12.20;99.90;;;;;;4911074;29;20056;-79
2023/06/06 03:45:40;;;;;;;10.50;4.30;;;12.20;99.90;;;;;;4928795;28;20101;-81
2023/06/06 03:48:09;;;;;;;5.20;4.50;;;12.20;99.90;;;;;;4932399;28;20040;-80
2023/06/06 03:50:38;;;;;;;4.78;4.20;;;12.20;99.90;;;;;;4918821;28;20103;-80
2023/06/06 03:53:08;;;;;;;7.57;4.00;;;12.30;99.90;;;;;;4928881;28;20055;-80
2023/06/06 03:55:37;;;;;;;11.13;4.28;;;12.30;99.90;;;;;;4918742;28;20517;-80
2023/06/06 03:58:05;;;;;;;7.57;4.60;;;12.40;99.90;;;;;;4918930;29;20060;-81
2023/06/06 04:00:32;;;;;;;7.88;3.92;;;12.40;99.90;;;;;;4917715;28;20056;-81
2023/06/06 04:03:00;;;;;;;8.52;3.50;;;12.40;99.90;;;;;;4931800;28;20099;-80
2023/06/06 04:05:27;;;;;;;5.75;3.83;;;12.50;99.90;;;;;;4937393;28;20116;-80
2023/06/06 04:07:55;;;;;;;9.48;3.97;;;12.50;99.90;;;;;;4897558;29;20072;-81
2023/06/06 04:10:22;;;;;;;7.35;3.42;;;12.60;99.90;;;;;;4922366;29;20055;-80
2023/06/06 04:12:51;;;;;;;5.97;3.55;;;12.60;99.90;;;;;;4913342;28;20127;-82
2023/06/06 04:15:18;;;;;;;7.88;4.55;;;12.70;99.90;;;;;;4915482;28;20063;-80
2023/06/06 04:17:45;;;;;;;7.55;3.95;;;12.70;99.90;;;;;;4924875;28;20052;-80
2023/06/06 04:20:12;;;;;;;5.22;3.65;;;12.80;99.90;;;;;;4921219;28;20055;-81
2023/06/06 04:22:41;;;;;;;5.90;4.00;;;12.80;99.90;;;;;;4914178;28;20040;-79
2023/06/06 04:25:08;;;;;;;6.18;5.18;;;12.90;99.90;;;;;;4925715;28;20070;-80
2023/06/06 04:27:37;;;;;;;8.52;3.83;;;12.90;99.90;;;;;;4929389;28;20424;-81
2023/06/06 04:30:06;;;;;;;4.17;3.67;;;13.00;99.90;;;;;;4930687;28;20126;-79
2023/06/06 04:32:34;;;;;;;5.47;3.88;;;13.00;99.90;;;;;;4926836;28;20547;-80
2023/06/06 04:35:02;;;;;;;6.30;3.80;;;13.10;99.90;;;;;;4932187;28;20047;-80
2023/06/06 04:37:32;;;;;;;6.10;3.33;;;13.10;99.90;;;;;;4935156;28;20134;-80
2023/06/06 04:40:00;;;;;;;5.90;3.45;;;13.20;99.90;;;;;;4936268;28;20052;-80
2023/06/06 04:42:32;;;;;;;7.28;3.75;;;13.20;99.90;;;;;;4927401;28;20036;-80
2023/06/06 04:45:03;;;;;;;3.50;3.20;;;13.30;99.90;;;;;;4920181;28;20063;-80
2023/06/06 04:47:35;;;;;;;5.72;2.72;;;13.40;99.90;;;;;;4918801;29;20041;-81
2023/06/06 04:50:03;;;;;;;6.88;3.10;;;13.40;99.90;;;;;;4931720;28;20078;-80
2023/06/06 04:52:30;;;;;;;4.70;3.28;;;13.50;99.90;;;;;;4911783;28;20397;-82
2023/06/06 04:54:57;;;;;;;5.50;2.58;;;13.50;99.90;;;;;;4919939;28;20059;-82
2023/06/06 04:57:24;;;;;;;4.88;3.50;;;13.60;99.90;;;;;;4921643;28;20063;-84
2023/06/06 04:59:52;;;;;;;6.90;3.40;;;13.60;99.90;;;;;;4917916;28;20048;-84
2023/06/06 05:02:23;;;;;;;8.35;3.10;;;13.70;99.90;;;;;;4922177;28;20154;-83
2023/06/06 05:04:54;;;;;;;5.82;3.42;;;13.70;99.90;;;;;;4929975;28;20080;-84
2023/06/06 05:07:25;;;;;;;6.53;3.40;;;13.80;99.90;;;;;;4916267;28;20075;-83
2023/06/06 05:09:53;;;;;;;4.97;3.53;;;13.90;99.90;;;;;;4914225;29;20410;-85
2023/06/06 05:12:21;;;;;;;5.25;2.33;;;14.00;99.90;;;;;;4916316;29;20413;-84
2023/06/06 05:14:48;;;;;;;3.03;2.70;;;14.00;99.90;;;;;;4914682;28;20067;-84
2023/06/06 05:17:17;;;;;;;5.45;2.47;;;14.00;99.90;;;;;;4917861;28;20094;-84
2023/06/06 05:19:48;;;;;;;6.35;3.53;;;14.10;99.90;;;;;;4914351;28;20071;-83
2023/06/06 05:22:15;;;;;;;7.03;3.60;;;14.20;99.90;;;;;;4927537;28;20084;-81
2023/06/06 05:24:43;;;;;;;10.00;3.70;;;14.20;99.90;;;;;;4912538;28;20059;-83
2023/06/06 05:27:10;;;;;;;4.85;3.28;;;14.30;99.90;;;;;;4919306;28;20150;-83
2023/06/06 05:29:37;;;;;;;3.45;3.03;;;14.40;99.90;;;;;;4933141;29;20052;-83
2023/06/06 05:32:08;;;;;;;8.48;3.60;;;14.40;99.90;;;;;;4918221;29;20047;-84
2023/06/06 05:34:36;;;;;;;3.97;2.97;;;14.40;99.90;;;;;;4925871;28;20087;-84
2023/06/06 05:37:03;;;;;;;5.80;3.50;;;14.50;99.90;;;;;;4920803;28;20036;-84
2023/06/06 05:39:30;;;;;;;5.07;3.30;;;14.60;99.90;;;;;;4917128;29;20405;-83
2023/06/06 05:41:57;;;;;;;10.63;4.65;;;14.60;99.90;;;;;;4931867;28;20056;-83
2023/06/06 05:44:24;;;;;;;4.00;3.50;;;14.70;99.90;;;;;;4917829;28;20135;-83
2023/06/06 05:46:54;;;;;;;4.72;3.10;;;14.70;99.90;;;;;;4919082;28;20621;-84
2023/06/06 05:49:23;;;;;;;4.18;2.85;;;14.80;99.90;;;;;;4933981;28;20066;-84
2023/06/06 05:51:51;;;;;;;5.03;2.85;;;14.80;99.90;;;;;;4915029;28;20060;-84
2023/06/06 05:54:18;;;;;;;7.25;3.13;;;14.90;99.90;;;;;;4936164;28;20048;-82
2023/06/06 05:56:45;;;;;;;5.82;3.20;;;15.00;99.90;;;;;;4916286;28;20131;-81
2023/06/06 05:59:12;;;;;;;4.90;3.17;;;15.10;99.90;;;;;;4924311;28;20626;-81
2023/06/06 06:01:41;;;;;;;4.03;3.45;;;15.20;99.90;;;;;;4922591;28;20724;-84
2023/06/06 06:04:08;;;;;;;5.10;3.05;;;15.10;99.90;;;;;;4918562;28;20424;-84
2023/06/06 06:06:37;;;;;;;4.20;3.08;;;15.00;99.90;;;;;;4918103;28;20695;-82
2023/06/06 06:09:05;;;;;;;5.13;3.60;;;14.90;99.90;;;;;;4921218;28;20103;-83
2023/06/06 06:11:32;;;;;;;6.35;2.90;;;14.90;99.90;;;;;;4917024;28;20062;-82
2023/06/06 06:13:59;;;;;;;4.22;3.83;;;14.90;99.90;;;;;;4923759;29;20351;-84
2023/06/06 06:16:26;;;;;;;4.60;2.30;;;15.00;99.90;;;;;;4917157;28;20500;-83
2023/06/06 06:18:53;;;;;;;4.95;3.40;;;15.10;99.90;;;;;;4918160;28;20071;-83
2023/06/06 06:21:21;;;;;;;5.03;3.40;;;15.20;99.90;;;;;;4915540;29;20135;-82
2023/06/06 06:23:49;;;;;;;4.57;3.00;;;15.40;99.90;;;;;;4928174;28;20059;-82
2023/06/06 06:26:17;;;;;;;6.43;2.70;;;15.50;99.90;;;;;;4916640;28;20054;-83
2023/06/06 06:28:44;;;;;;;4.03;3.60;;;15.60;99.90;;;;;;4915621;28;20365;-82
2023/06/06 06:31:11;;;;;;;3.53;2.20;;;15.80;99.90;;;;;;4934209;28;20466;-85
2023/06/06 06:33:39;;;;;;;5.20;2.83;;;15.90;99.90;;;;;;4917699;28;20048;-83
2023/06/06 06:36:06;;;;;;;4.07;3.00;;;16.00;99.90;;;;;;4933000;28;20162;-83
2023/06/06 06:38:33;;;;;;;5.28;2.92;;;16.00;99.90;;;;;;4924670;28;20143;-82
2023/06/06 06:41:00;;;;;;;3.63;2.60;;;15.90;99.90;;;;;;4921208;28;20070;-84
2023/06/06 06:43:27;;;;;;;4.75;2.65;;;15.90;99.90;;;;;;4916751;28;20064;-85
2023/06/06 06:46:11;;;;;;;4.20;3.08;;;15.90;99.90;;;;;;4938042;28;20126;-84
2023/06/06 06:48:39;;;;;;;5.78;3.55;;;15.80;99.90;;;;;;4913506;28;20056;-82
2023/06/06 06:51:06;;;;;;;4.03;3.40;;;15.70;99.90;;;;;;4916433;29;20047;-84
2023/06/06 06:53:37;;;;;;;3.33;3.00;;;15.60;99.90;;;;;;4925855;28;20056;-83
2023/06/06 06:56:04;;;;;;;6.97;3.67;;;15.60;99.90;;;;;;4916715;29;20147;-84
2023/06/06 06:58:35;;;;;;;5.13;2.80;;;15.50;99.90;;;;;;4937588;28;20041;-83
2023/06/06 07:01:02;;;;;;;4.53;3.75;;;15.50;99.90;;;;;;4936433;28;20055;-80
2023/06/06 07:03:34;;;;;;;4.10;3.35;;;15.50;99.90;;;;;;4930093;28;20050;-84
2023/06/06 07:06:06;;;;;;;5.28;3.15;;;15.50;99.90;;;;;;4934596;28;20139;-84
2023/06/06 07:08:32;;;;;;;;;;;15.50;99.90;;;;;;4927477;28;20055;-84
2023/06/06 07:10:59;;;;;;;9.35;4.00;;;15.40;99.90;;;;;;4916524;28;20439;-84
2023/06/06 07:13:26;;;;;;;9.48;3.92;;;15.30;99.90;;;;;;4915508;28;20056;-84
2023/06/06 07:15:53;;;;;;;4.35;3.03;;;15.20;99.90;;;;;;4916964;28;20074;-83
2023/06/06 07:18:20;;;;;;;5.60;3.05;;;15.20;99.90;;;;;;4931174;28;20231;-85
2023/06/06 07:20:47;;;;;;;7.40;3.85;;;15.10;99.90;;;;;;4918427;28;20239;-82
2023/06/06 07:23:14;;;;;;;9.65;3.90;;;15.10;99.90;;;;;;4919214;28;20556;-84
2023/06/06 07:25:42;;;;;;;4.20;3.40;;;15.20;99.90;;;;;;4914658;29;20052;-80
2023/06/06 07:28:10;;;;;;;5.97;3.50;;;15.20;99.90;;;;;;4921526;28;20162;-85
2023/06/06 07:30:37;;;;;;;5.55;3.17;;;15.20;99.90;;;;;;4928239;28;20486;-84
2023/06/06 07:33:04;;;;;;;6.68;3.58;;;15.10;99.90;;;;;;4934389;28;20074;-82
2023/06/06 07:35:32;;;;;;;6.38;3.75;;;15.10;99.90;;;;;;4917769;28;20120;-82
2023/06/06 07:38:00;;;;;;;4.05;3.67;;;15.20;99.90;;;;;;4931871;28;20064;-83
2023/06/06 07:40:27;;;;;;;4.28;3.63;;;15.20;99.90;;;;;;4914290;28;20064;-84
2023/06/06 07:42:57;;;;;;;6.93;3.60;;;15.30;99.90;;;;;;4923567;28;20063;-84
2023/06/06 07:45:24;;;;;;;19.00;4.40;;;15.30;99.90;;;;;;4918592;28;20059;-85
2023/06/06 07:47:51;;;;;;;6.15;3.95;;;15.30;99.90;;;;;;4936106;28;20065;-83
2023/06/06 07:50:18;;;;;;;5.55;3.25;;;15.30;99.90;;;;;;4919403;28;20059;-83
2023/06/06 07:52:46;;;;;;;5.47;4.38;;;15.40;99.90;;;;;;4919059;28;20051;-85
2023/06/06 07:55:13;;;;;;;4.32;3.47;;;15.40;99.90;;;;;;4918698;28;20064;-81
2023/06/06 07:57:40;;;;;;;7.03;3.88;;;15.40;99.90;;;;;;4922793;28;20043;-84
2023/06/06 08:00:12;;;;;;;8.15;4.32;;;15.40;99.90;;;;;;4919375;28;20421;-85
2023/06/06 08:02:40;;;;;;;9.98;3.45;;;15.40;99.90;;;;;;4917996;28;20127;-81
2023/06/06 08:05:08;;;;;;;7.07;3.78;;;15.40;99.90;;;;;;4933605;28;20070;-82
2023/06/06 08:07:38;;;;;;;4.65;3.47;;;15.50;99.90;;;;;;4917602;29;20052;-84
2023/06/06 08:10:06;;;;;;;6.20;3.22;;;15.60;99.90;;;;;;4914887;28;20433;-82
2023/06/06 08:12:33;;;;;;;5.50;3.60;;;15.50;99.90;;;;;;4920117;28;20069;-82
2023/06/06 08:15:01;;;;;;;10.93;4.90;;;15.60;99.90;;;;;;4912128;29;20138;-83
2023/06/06 08:17:28;;;;;;;4.63;3.28;;;15.60;99.90;;;;;;4921248;28;20055;-83
2023/06/06 08:19:55;;;;;;;5.13;4.15;;;15.60;99.90;;;;;;4933328;28;20059;-83
2023/06/06 08:22:24;;;;;;;6.57;4.70;;;15.70;99.90;;;;;;4917162;28;20059;-81
2023/06/06 08:24:51;;;;;;;4.80;4.18;;;15.60;99.90;;;;;;4919509;28;20051;-86
2023/06/06 08:27:18;;;;;;;5.88;4.65;;;15.60;99.90;;;;;;4915322;28;20055;-84
2023/06/06 08:29:45;;;;;;;9.02;3.97;;;15.60;99.90;;;;;;4929083;28;20485;-83
2023/06/06 08:32:12;;;;;;;6.18;3.65;;;15.50;99.90;;;;;;4917934;28;20485;-83
2023/06/06 08:34:39;;;;;;;9.65;5.38;;;15.60;99.90;;;;;;4912288;28;20060;-84
2023/06/06 08:37:06;;;;;;;6.32;4.00;;;15.60;99.90;;;;;;4920218;28;20055;-82
2023/06/06 08:39:33;;;;;;;8.57;4.05;;;15.60;99.90;;;;;;4933898;28;20056;-83
2023/06/06 08:42:01;;;;;;;4.35;3.78;;;15.60;99.90;;;;;;4930583;28;20540;-81
2023/06/06 08:44:28;;;;;;;5.72;4.25;;;15.60;99.90;;;;;;4919035;28;20066;-82
2023/06/06 08:46:58;;;;;;;4.47;3.90;;;15.70;99.90;;;;;;4920955;29;20056;-85
2023/06/06 08:49:28;;;;;;;6.72;4.28;;;15.80;99.90;;;;;;4912123;28;20055;-84
2023/06/06 08:51:56;;;;;;;5.75;3.50;;;15.90;99.90;;;;;;4923340;28;20068;-84
2023/06/06 08:54:24;;;;;;;5.80;3.70;;;15.90;99.90;;;;;;4918739;28;20052;-81
2023/06/06 08:56:53;;;;;;;7.43;4.88;;;15.70;99.90;;;;;;4920247;28;20050;-83
2023/06/06 08:59:20;;;;;;;5.57;4.53;;;15.60;99.90;;;;;;4920263;28;20074;-82
2023/06/06 09:01:53;;;;;;;6.57;3.90;;;15.60;99.90;;;;;;4923475;28;20127;-83
2023/06/06 09:04:20;;;;;;;5.28;2.97;;;15.70;99.90;;;;;;4938512;28;20158;-81
2023/06/06 09:06:50;;;;;;;7.95;4.20;;;15.80;99.90;;;;;;4918774;28;20489;-83
2023/06/06 09:09:19;;;;;;;4.55;3.42;;;15.80;99.90;;;;;;4927547;29;20495;-82
2023/06/06 09:11:46;;;;;;;5.15;2.92;;;15.80;99.90;;;;;;4926059;28;20044;-83
2023/06/06 09:14:13;;;;;;;6.78;3.60;;;15.80;99.90;;;;;;4923096;28;20532;-84
2023/06/06 09:16:41;;;;;;;5.65;3.03;;;15.80;99.90;;;;;;4919102;28;20566;-82
2023/06/06 09:19:08;;;;;;;6.63;3.55;;;15.90;99.90;;;;;;4932353;28;20509;-82
2023/06/06 09:21:36;;;;;;;4.75;3.55;;;16.00;99.90;;;;;;4921402;28;20090;-82
2023/06/06 09:24:04;;;;;;;6.20;3.83;;;16.10;99.90;;;;;;4930966;28;20461;-81
2023/06/06 09:26:33;;;;;;;4.90;4.10;;;16.10;99.90;;;;;;4916276;28;20091;-83
2023/06/06 09:29:13;;;;;;;6.10;3.75;;;16.10;99.90;;;;;;4920966;28;20056;-83
2023/06/06 09:31:41;;;;;;;5.22;3.65;;;16.10;99.90;;;;;;4919776;28;20062;-84
2023/06/06 09:34:10;;;;;;;7.90;3.00;;;16.10;99.90;;;;;;4918897;29;20402;-81
2023/06/06 09:36:41;;;;;;;5.82;2.72;;;16.20;99.90;;;;;;4919167;28;20086;-83
2023/06/06 09:39:14;;;;;;;4.10;3.17;;;16.20;99.90;;;;;;4921498;28;20044;-84
2023/06/06 09:41:45;;;;;;;11.05;4.25;;;16.30;99.90;;;;;;4921770;29;20503;-84
2023/06/06 09:44:27;;;;;;;7.18;3.65;;;16.20;99.90;;;;;;4918554;28;20526;-86
2023/06/06 09:47:05;;;;;;;3.75;3.08;;;16.20;99.90;;;;;;4920600;29;20066;-84
2023/06/06 09:49:36;;;;;;;8.05;3.53;;;16.40;99.90;;;;;;4920091;29;20146;-83
2023/06/06 09:52:05;;;;;;;5.78;3.58;;;16.50;99.90;;;;;;4921482;28;20961;-83
2023/06/06 09:54:33;;;;;;;4.25;3.75;;;16.60;99.90;;;;;;4917467;28;20118;-84
2023/06/06 09:57:10;;;;;;;5.63;3.28;;;16.40;99.90;;;;;;4915317;28;20056;-85
2023/06/06 09:59:37;;;;;;;5.47;2.97;;;16.50;99.90;;;;;;4934440;28;20501;-83
2023/06/06 10:02:06;;;;;;;4.38;2.92;;;16.50;99.90;;;;;;4931199;28;20062;-84
2023/06/06 10:04:34;;;;;;;4.57;3.30;;;16.60;99.90;;;;;;4929647;28;20048;-82
2023/06/06 10:07:03;;;;;;;4.70;2.78;;;16.60;99.90;;;;;;4933972;28;20347;-80
2023/06/06 10:09:30;;;;;;;6.30;3.63;;;16.60;99.90;;;;;;4917047;28;20056;-80
2023/06/06 10:11:59;;;;;;;4.13;2.22;;;16.60;99.90;;;;;;4915529;28;20167;-80
2023/06/06 10:14:28;;;;;;;5.80;2.75;;;16.70;99.90;;;;;;4917636;28;20083;-81
2023/06/06 10:16:56;;;;;;;4.65;3.42;;;16.70;99.90;;;;;;4921477;29;20055;-80
2023/06/06 10:19:24;;;;;;;4.57;2.90;;;16.70;99.90;;;;;;4917968;28;20048;-80
2023/06/06 10:21:52;;;;;;;4.93;2.90;;;16.70;99.90;;;;;;4927472;28;21800;-81
2023/06/06 10:24:19;;;;;;;2.95;2.63;;;16.80;99.90;;;;;;4915602;28;20063;-82
2023/06/06 10:26:53;;;;;;;3.70;2.28;;;16.90;99.90;;;;;;4913451;28;20059;-80
2023/06/06 10:29:30;;;;;;;4.45;2.97;;;17.10;99.90;;;;;;4911462;28;20071;-80
2023/06/06 10:32:12;;;;;;;5.30;2.97;;;17.10;99.90;;;;;;4916299;28;20102;-79
2023/06/06 10:34:43;;;;;;;3.25;2.38;;;17.30;99.90;;;;;;4915639;28;20048;-80
2023/06/06 10:37:15;;;;;;;6.97;2.47;;;17.30;99.90;;;;;;4935217;28;20056;-80
2023/06/06 10:39:47;;;;;;;3.25;2.85;;;17.50;99.90;;;;;;4917483;28;20448;-82
2023/06/06 10:42:15;;;;;;;2.97;2.67;;;17.50;99.90;;;;;;4930488;28;20058;-80
2023/06/06 10:44:45;;;;;;;4.82;1.98;;;17.40;99.90;;;;;;4908083;28;20048;-80
2023/06/06 10:47:21;;;;;;;4.40;2.67;;;17.40;99.90;;;;;;4929836;28;20078;-80
2023/06/06 10:50:07;;;;;;;7.88;3.17;;;17.40;99.90;;;;;;4933521;28;20099;-81
2023/06/06 10:52:45;;;;;;;4.82;2.88;;;17.50;99.90;;;;;;4912300;28;20551;-81
2023/06/06 10:55:16;;;;;;;5.05;2.50;;;17.40;99.90;;;;;;4912806;29;20060;-80
2023/06/06 10:58:03;;;;;;;3.70;2.92;;;17.40;99.90;;;;;;4935586;28;20172;-80
2023/06/06 11:00:44;;;;;;;4.55;3.72;;;17.40;99.90;;;;;;4929473;28;20058;-81
2023/06/06 11:03:32;;;;;;;3.35;2.72;;;17.60;99.90;;;;;;4935805;28;20059;-82
2023/06/06 11:05:59;;;;;;;3.15;2.45;;;17.60;99.90;;;;;;4932023;28;20060;-80
2023/06/06 11:08:45;;;;;;;4.55;3.30;;;17.60;99.90;;;;;;4920207;28;20110;-80
2023/06/06 11:11:16;;;;;;;6.13;3.15;;;17.90;99.90;;;;;;4920426;29;20159;-82
2023/06/06 11:13:53;;;;;;;5.40;2.70;;;17.90;99.90;;;;;;4935472;28;20371;-80
2023/06/06 11:16:50;;;;;;;6.05;2.72;;;18.00;99.90;;;;;;4914726;28;20065;-80
2023/06/06 11:19:19;;;;;;;3.60;3.03;;;17.80;99.90;;;;;;4910732;28;20056;-82
2023/06/06 11:21:50;;;;;;;6.13;3.17;;;17.60;99.90;;;;;;4918773;28;20122;-81
2023/06/06 11:24:21;;;;;;;6.60;2.90;;;17.40;99.90;;;;;;4906557;29;20059;-81
2023/06/06 11:26:51;;;;;;;6.85;3.75;;;17.40;99.90;;;;;;4929898;28;20052;-79
2023/06/06 11:29:20;;;;;;;4.13;3.70;;;17.40;99.90;;;;;;4920792;28;20062;-79
2023/06/06 11:31:48;;;;;;;4.67;3.87;;;17.30;99.90;;;;;;4916166;28;21204;-79
2023/06/06 11:34:15;;;;;;;6.72;3.17;;;17.30;99.90;;;;;;4931189;28;20170;-81
2023/06/06 11:36:44;;;;;;;5.80;4.18;;;17.50;99.90;;;;;;4915082;28;20047;-79
2023/06/06 11:39:12;;;;;;;4.65;3.22;;;17.60;99.90;;;;;;4933599;28;20052;-80
2023/06/06 11:41:39;;;;;;;6.53;3.60;;;17.70;99.90;;;;;;4929187;28;20138;-81
2023/06/06 11:44:07;;;;;;;5.60;3.42;;;17.70;99.90;;;;;;4929997;28;20048;-80
2023/06/06 11:46:51;;;;;;;5.65;3.28;;;17.90;99.90;;;;;;4917460;28;20044;-81
2023/06/06 11:49:21;;;;;;;6.00;3.28;;;17.70;99.90;;;;;;4932608;28;20060;-80
2023/06/06 11:51:55;;;;;;;5.30;3.35;;;17.80;99.90;;;;;;4907443;29;20549;-79
2023/06/06 11:54:23;;;;;;;4.63;3.10;;;17.80;99.90;;;;;;4933647;28;20476;-80
2023/06/06 11:56:52;;;;;;;4.85;3.08;;;17.90;99.90;;;;;;4914499;29;20044;-80
2023/06/06 11:59:20;;;;;;;3.30;2.95;;;17.70;99.90;;;;;;4920503;28;20066;-82
2023/06/06 12:01:52;;;;;;;6.05;3.17;;;17.60;99.90;;;;;;4910985;28;20106;-83
2023/06/06 12:04:24;;;;;;;2.78;2.45;;;17.50;99.90;;;;;;4932903;28;20102;-79
2023/06/06 12:06:53;;;;;;;10.25;4.03;;;17.60;99.90;;;;;;4914016;28;20043;-81
2023/06/06 12:09:23;;;;;;;7.93;3.17;;;17.60;99.90;;;;;;4916093;28;20524;-80
2023/06/06 12:12:02;;;;;;;13.35;4.35;;;17.60;99.90;;;;;;4933611;28;20056;-80
2023/06/06 12:14:30;;;;;;;3.08;2.70;;;17.70;99.90;;;;;;4931667;28;20052;-80
2023/06/06 12:17:02;;;;;;;11.20;4.10;;;17.90;99.90;;;;;;4933258;28;20536;-81
2023/06/06 12:19:29;;;;;;;5.15;3.08;;;18.00;99.90;;;;;;4931242;28;20048;-80
2023/06/06 12:21:56;;;;;;;11.00;4.38;;;18.10;99.90;;;;;;4895863;29;20492;-80
2023/06/06 12:24:28;;;;;;;3.38;2.67;;;18.30;99.90;;;;;;4912600;29;20087;-80
2023/06/06 12:26:59;;;;;;;2.92;2.53;;;18.30;99.90;;;;;;4913096;28;20126;-82
2023/06/06 12:29:30;;;;;;;9.43;3.08;;;18.30;99.90;;;;;;4912757;29;20050;-80
2023/06/06 12:32:14;;;;;;;5.30;3.22;;;18.40;99.90;;;;;;4922097;29;20456;-80
2023/06/06 12:34:48;;;;;;;5.78;3.03;;;18.60;99.90;;;;;;4913645;28;20462;-81
2023/06/06 12:37:16;;;;;;;4.38;2.75;;;18.70;99.90;;;;;;4930813;28;20070;-80
2023/06/06 12:39:45;;;;;;;4.90;2.88;;;19.00;99.90;;;;;;4919633;28;20044;-80
2023/06/06 12:42:19;;;;;;;6.10;3.35;;;19.10;99.90;;;;;;4914907;29;20059;-81
2023/06/06 12:44:46;;;;;;;4.55;3.47;;;19.20;99.90;;;;;;4915899;28;20142;-80
2023/06/06 12:47:14;;;;;;;3.20;2.75;;;19.30;99.90;;;;;;4928925;28;20469;-80
2023/06/06 12:49:42;;;;;;;4.68;2.60;;;19.20;99.90;;;;;;4914739;29;20051;-80
2023/06/06 12:52:11;;;;;;;8.07;4.38;;;19.50;99.90;;;;;;4918888;29;20055;-82
2023/06/06 12:54:41;;;;;;;5.30;2.80;;;19.40;99.90;;;;;;4933465;28;20119;-80
2023/06/06 12:57:10;;;;;;;4.90;2.70;;;19.40;99.90;;;;;;4912326;28;20128;-79